Time;durP1;ratioP1;P1;durP2;ratioP2;P2;SDS_P1;SDS_P2;PMS_P1;PMS_P2;Temp;Humidity;BMP_temperature;BMP_pressure;BME280_temperature;BME280_humidity;BME280_pressure;Samples;Min_cycle;Max_cycle;Signal;HPM_P1;HPM_P2
2024/03/01 00:01:41;;;;;;;16.85;12.68;;;;;;;7.39;100.00;100114.28;5053260;28;20375;-78
2024/03/01 00:04:06;;;;;;;17.10;12.52;;;;;;;7.41;100.00;100109.69;5053926;28;20037;-77
2024/03/01 00:06:32;;;;;;;17.90;12.82;;;;;;;7.41;100.00;100114.97;5054081;28;20036;-77
2024/03/01 00:08:58;;;;;;;18.60;13.27;;;;;;;7.42;100.00;100100.78;5054356;28;20108;-77
2024/03/01 00:11:24;;;;;;;17.67;13.35;;;;;;;7.43;100.00;100098.97;5054284;28;20468;-78
2024/03/01 00:13:49;;;;;;;15.40;12.48;;;;;;;7.43;100.00;100097.13;5062527;28;20486;-79
2024/03/01 00:16:15;;;;;;;16.85;12.73;;;;;;;7.44;100.00;100104.13;5067642;28;20063;-77
2024/03/01 00:18:40;;;;;;;14.55;12.32;;;;;;;7.42;100.00;100095.50;5071845;28;20033;-77
2024/03/01 00:21:05;;;;;;;16.48;12.10;;;;;;;7.44;100.00;100098.81;5072884;28;20039;-78
2024/03/01 00:23:31;;;;;;;15.57;12.13;;;;;;;7.43;100.00;100097.13;5070661;28;20363;-77
2024/03/01 00:25:56;;;;;;;20.10;12.82;;;;;;;7.43;100.00;100097.13;5063313;28;20035;-78
2024/03/01 00:28:22;;;;;;;15.18;12.52;;;;;;;7.44;100.00;100095.34;5063607;28;20099;-77
2024/03/01 00:30:47;;;;;;;14.95;12.05;;;;;;;7.43;100.00;100091.03;5058268;28;20111;-77
2024/03/01 00:33:13;;;;;;;15.85;12.38;;;;;;;7.46;100.00;100080.16;5057650;28;20029;-77
2024/03/01 00:35:39;;;;;;;16.30;12.50;;;;;;;7.46;100.00;100082.81;5057624;28;20056;-77
2024/03/01 00:38:04;;;;;;;16.98;12.98;;;;;;;7.46;100.00;100090.75;5055702;28;20532;-77
2024/03/01 00:40:29;;;;;;;19.08;12.48;;;;;;;7.45;100.00;100091.72;5056683;28;20043;-77
2024/03/01 00:42:55;;;;;;;15.15;12.15;;;;;;;7.47;100.00;100084.47;5057065;28;20064;-81
2024/03/01 00:45:21;;;;;;;16.65;13.07;;;;;;;7.48;100.00;100083.50;5055370;28;20067;-77
2024/03/01 00:47:48;;;;;;;16.35;12.50;;;;;;;7.48;100.00;100070.25;5055081;28;20053;-77
2024/03/01 00:50:14;;;;;;;16.08;12.48;;;;;;;7.49;100.00;100080.69;5056426;28;20044;-77
2024/03/01 00:52:41;;;;;;;16.92;11.98;;;;;;;7.50;100.00;100074.44;5056740;28;20051;-78
2024/03/01 00:55:06;;;;;;;15.73;11.68;;;;;;;7.54;100.00;100078.50;5056525;28;20060;-77
2024/03/01 00:57:32;;;;;;;17.35;11.82;;;;;;;7.54;100.00;100070.56;5056462;28;20095;-77
2024/03/01 00:59:59;;;;;;;13.50;11.27;;;;;;;7.55;100.00;100077.53;5056165;28;20628;-83
2024/03/01 01:02:24;;;;;;;16.10;11.32;;;;;;;7.58;100.00;100069.31;5054481;28;20474;-77
2024/03/01 01:04:49;;;;;;;16.10;11.43;;;;;;;7.62;100.00;100075.16;5054539;28;20151;-78
2024/03/01 01:07:16;;;;;;;16.98;11.48;;;;;;;7.62;100.00;100064.56;5055850;28;20025;-77
2024/03/01 01:09:42;;;;;;;15.48;11.80;;;;;;;7.64;100.00;100062.59;5056205;28;20029;-77
2024/03/01 01:12:08;;;;;;;16.02;11.30;;;;;;;7.65;100.00;100060.81;5056540;28;20116;-78
2024/03/01 01:14:33;;;;;;;15.27;11.88;;;;;;;7.66;100.00;100060.66;5056023;28;20391;-77
2024/03/01 01:16:58;;;;;;;13.73;11.52;;;;;;;7.67;100.00;100058.84;5054809;28;20075;-79
2024/03/01 01:19:24;;;;;;;14.48;10.85;;;;;;;7.68;100.00;100053.41;5054279;28;20036;-77
2024/03/01 01:21:49;;;;;;;14.30;11.32;;;;;;;7.68;100.00;100040.16;5054605;28;20119;-77
2024/03/01 01:24:15;;;;;;;11.95;10.52;;;;;;;7.70;100.00;100034.72;5054855;28;20442;-76
2024/03/01 01:26:40;;;;;;;13.65;10.73;;;;;;;7.71;100.00;100036.41;5054055;28;20119;-78
2024/03/01 01:29:07;;;;;;;14.57;10.77;;;;;;;7.73;100.00;100035.31;5055452;28;20020;-77
2024/03/01 01:31:32;;;;;;;12.50;9.93;;;;;;;7.76;100.00;100031.53;5056199;28;20155;-77
2024/03/01 01:33:58;;;;;;;11.48;10.02;;;;;;;7.76;100.00;100029.72;5055644;28;20108;-78
2024/03/01 01:36:23;;;;;;;13.30;9.55;;;;;;;7.77;100.00;100020.78;5055261;28;20066;-78
2024/03/01 01:38:48;;;;;;;11.40;9.77;;;;;;;7.79;100.00;100020.66;5055506;28;20029;-77
2024/03/01 01:41:14;;;;;;;11.65;9.50;;;;;;;7.79;100.00;100020.66;5055390;28;20021;-78
2024/03/01 01:43:42;;;;;;;11.77;9.60;;;;;;;7.80;100.00;100013.56;5054324;28;20522;-78
2024/03/01 01:46:14;;;;;;;13.65;10.15;;;;;;;7.81;100.00;100009.91;5055561;28;20056;-77
2024/03/01 01:48:39;;;;;;;10.93;9.10;;;;;;;7.81;100.00;100013.41;5055466;28;20550;-77
2024/03/01 01:51:06;;;;;;;10.88;9.18;;;;;;;7.83;100.00;100015.91;5055267;28;20066;-82
2024/03/01 01:53:32;;;;;;;9.93;8.68;;;;;;;7.82;100.00;100008.94;5053736;28;20395;-77
2024/03/01 01:56:00;;;;;;;12.18;8.65;;;;;;;7.82;100.00;100011.59;5055181;28;20083;-78
2024/03/01 01:58:26;;;;;;;11.45;9.20;;;;;;;7.81;100.00;100010.75;5053870;28;20479;-78
2024/03/01 02:00:52;;;;;;;12.77;9.82;;;;;;;7.83;100.00;100011.44;5053467;28;20111;-79
2024/03/01 02:03:19;;;;;;;10.85;9.43;;;;;;;7.86;100.00;100015.63;5051649;28;20031;-78
2024/03/01 02:05:45;;;;;;;7.82;7.07;;;;;;;7.84;100.00;100026.38;5052337;28;20407;-76
2024/03/01 02:08:10;;;;;;;6.88;5.93;;;;;;;7.80;100.00;100040.03;5053651;28;20033;-78
2024/03/01 02:10:36;;;;;;;9.88;4.65;;;;;;;7.56;100.00;100059.81;5055742;28;20032;-75
2024/03/01 02:13:02;;;;;;;6.93;3.47;;;;;;;7.28;100.00;100070.22;5054905;28;20028;-77
2024/03/01 02:15:28;;;;;;;11.63;2.25;;;;;;;6.67;100.00;100072.00;5054906;28;20033;-76
2024/03/01 02:17:55;;;;;;;14.13;1.75;;;;;;;6.03;100.00;100083.59;5054518;28;20025;-75
2024/03/01 02:20:21;;;;;;;8.13;1.25;;;;;;;5.59;100.00;100077.53;5054359;28;20395;-76
2024/03/01 02:22:55;;;;;;;9.35;1.50;;;;;;;5.34;100.00;100087.41;5054435;28;20029;-77
2024/03/01 02:25:20;;;;;;;6.03;1.40;;;;;;;5.15;100.00;100085.44;5054415;28;20096;-76
2024/03/01 02:27:47;;;;;;;8.63;2.08;;;;;;;4.99;100.00;100092.88;5054435;28;20112;-76
2024/03/01 02:30:13;;;;;;;5.57;1.40;;;;;;;4.87;100.00;100099.97;5054609;28;20025;-77
2024/03/01 02:32:38;;;;;;;7.88;1.40;;;;;;;4.81;100.00;100103.91;5054663;28;20410;-76
2024/03/01 02:35:04;;;;;;;4.95;0.95;;;;;;;4.66;100.00;100103.31;5054319;28;20033;-78
2024/03/01 02:37:29;;;;;;;4.30;0.82;;;;;;;4.52;100.00;100103.53;5053869;28;20029;-77
2024/03/01 02:39:54;;;;;;;7.28;0.98;;;;;;;4.44;100.00;100112.03;5052677;28;20040;-76
2024/03/01 02:42:20;;;;;;;9.40;1.15;;;;;;;4.39;100.00;100115.00;5053010;28;20082;-78
2024/03/01 02:44:45;;;;;;;2.38;0.70;;;;;;;4.35;100.00;100118.81;5052744;28;20045;-75
2024/03/01 02:47:10;;;;;;;7.13;1.20;;;;;;;4.31;100.00;100125.28;5050843;28;20107;-74
2024/03/01 02:49:36;;;;;;;2.60;1.00;;;;;;;4.30;100.00;100125.38;5051176;28;20028;-74
2024/03/01 02:52:01;;;;;;;10.40;1.27;;;;;;;4.27;100.00;100123.84;5051418;28;20036;-75
2024/03/01 02:54:26;;;;;;;4.95;1.02;;;;;;;4.26;100.00;100123.97;5049926;28;20021;-77
2024/03/01 02:56:51;;;;;;;7.63;1.10;;;;;;;4.24;100.00;100124.91;5049932;28;20104;-74
2024/03/01 02:59:17;;;;;;;9.15;1.20;;;;;;;4.21;100.00;100119.88;5050864;28;20312;-75
2024/03/01 03:01:42;;;;;;;8.38;1.15;;;;;;;4.17;100.00;100126.31;5051067;28;20025;-75
2024/03/01 03:04:07;;;;;;;6.07;1.02;;;;;;;4.15;100.00;100122.97;5050586;28;20111;-75
2024/03/01 03:06:33;;;;;;;6.57;1.33;;;;;;;4.13;100.00;100143.28;5051096;28;20037;-75
2024/03/01 03:08:58;;;;;;;2.28;1.00;;;;;;;4.11;100.00;100139.13;5051025;28;20033;-75
2024/03/01 03:11:25;;;;;;;4.05;0.82;;;;;;;4.10;100.00;100146.16;5050852;28;20029;-77
2024/03/01 03:13:51;;;;;;;11.50;1.48;;;;;;;4.10;100.00;100159.31;5050896;28;20098;-77
2024/03/01 03:16:16;;;;;;;6.15;1.40;;;;;;;4.11;100.00;100155.75;5051004;28;20051;-75
2024/03/01 03:18:42;;;;;;;3.67;1.20;;;;;;;4.13;100.00;100167.00;5050763;28;20033;-77
2024/03/01 03:21:07;;;;;;;7.88;1.45;;;;;;;4.15;100.00;100172.16;5050783;28;20055;-76
2024/03/01 03:23:33;;;;;;;5.15;1.10;;;;;;;4.17;100.00;100162.34;5050896;28;20048;-77
2024/03/01 03:25:59;;;;;;;4.75;0.98;;;;;;;4.18;100.00;100178.03;5051149;28;20079;-77
2024/03/01 03:28:24;;;;;;;4.32;0.95;;;;;;;4.20;100.00;100175.28;5050754;28;20542;-76
2024/03/01 03:30:50;;;;;;;8.60;1.35;;;;;;;4.22;100.00;100181.28;5050811;28;20033;-77
2024/03/01 03:33:16;;;;;;;9.45;1.30;;;;;;;4.26;100.00;100176.63;5051225;28;20035;-77
2024/03/01 03:35:41;;;;;;;5.18;1.30;;;;;;;4.28;100.00;100177.34;5050444;28;20047;-77
2024/03/01 03:38:06;;;;;;;5.25;1.42;;;;;;;4.29;100.00;100185.13;5050740;28;20025;-77
2024/03/01 03:40:32;;;;;;;7.68;1.50;;;;;;;4.31;100.00;100193.75;5050890;28;20119;-77
2024/03/01 03:42:57;;;;;;;7.07;1.33;;;;;;;4.33;100.00;100193.63;5049160;28;20049;-76
2024/03/01 03:45:22;;;;;;;7.53;1.20;;;;;;;4.35;100.00;100197.84;5050860;28;20504;-78
2024/03/01 03:47:48;;;;;;;5.65;1.33;;;;;;;4.39;100.00;100196.66;5050455;28;20449;-76
2024/03/01 03:50:13;;;;;;;9.15;1.27;;;;;;;4.41;100.00;100197.38;5050602;28;20024;-76
2024/03/01 03:52:39;;;;;;;6.95;1.42;;;;;;;4.42;100.00;100206.16;5050539;28;20391;-76
2024/03/01 03:55:05;;;;;;;3.58;1.20;;;;;;;4.41;100.00;100218.44;5051021;28;20052;-76
2024/03/01 03:57:34;;;;;;;9.20;1.73;;;;;;;4.40;100.00;100218.56;5050820;28;20470;-77
2024/03/01 04:00:00;;;;;;;4.15;1.10;;;;;;;4.40;100.00;100227.34;5050398;28;20036;-76
2024/03/01 04:02:26;;;;;;;8.68;1.27;;;;;;;4.41;100.00;100220.25;5050580;28;20037;-78
2024/03/01 04:04:51;;;;;;;11.80;1.42;;;;;;;4.38;100.00;100223.13;5050858;28;20025;-75
2024/03/01 04:07:17;;;;;;;6.00;1.70;;;;;;;4.39;100.00;100228.28;5050493;28;20372;-78
2024/03/01 04:09:43;;;;;;;6.80;1.40;;;;;;;4.37;100.00;100238.09;5050619;28;20335;-78
2024/03/01 04:12:09;;;;;;;4.70;1.58;;;;;;;4.37;100.00;100235.47;5050783;28;20052;-77
2024/03/01 04:14:35;;;;;;;5.47;1.58;;;;;;;4.38;100.00;100233.66;5050610;28;20033;-78
2024/03/01 04:17:00;;;;;;;5.30;1.42;;;;;;;4.37;100.00;100230.19;5050765;28;20021;-77
2024/03/01 04:19:26;;;;;;;5.50;1.58;;;;;;;4.38;100.00;100233.66;5050456;28;20029;-90
2024/03/01 04:21:52;;;;;;;5.35;1.13;;;;;;;4.38;100.00;100238.94;5050518;28;20122;-75
2024/03/01 04:24:18;;;;;;;3.92;1.50;;;;;;;4.39;100.00;100236.19;5050518;28;20414;-75
2024/03/01 04:26:44;;;;;;;3.95;1.45;;;;;;;4.39;100.00;100238.81;5050273;28;20459;-75
2024/03/01 04:29:09;;;;;;;9.13;1.77;;;;;;;4.40;100.00;100239.66;5050505;28;20029;-75
2024/03/01 04:31:35;;;;;;;3.90;1.42;;;;;;;4.39;100.00;100232.72;5050205;28;20029;-75
2024/03/01 04:34:04;;;;;;;8.05;2.50;;;;;;;4.40;100.00;100237.88;5050558;28;20029;-75
2024/03/01 04:36:29;;;;;;;4.53;1.65;;;;;;;4.38;100.00;100231.84;5050384;28;20394;-76
2024/03/01 04:38:55;;;;;;;6.38;1.48;;;;;;;4.31;100.00;100225.34;5050212;28;20033;-75
2024/03/01 04:41:20;;;;;;;7.10;1.30;;;;;;;4.25;100.00;100244.25;5050155;28;20033;-74
2024/03/01 04:43:46;;;;;;;5.05;1.40;;;;;;;4.12;100.00;100233.78;5050125;28;20526;-76
2024/03/01 04:46:13;;;;;;;4.90;1.70;;;;;;;4.02;100.00;100230.16;5050520;28;20439;-75
2024/03/01 04:48:38;;;;;;;8.45;1.83;;;;;;;3.91;100.00;100240.59;5050611;28;20099;-75
2024/03/01 04:51:10;;;;;;;7.90;1.80;;;;;;;3.82;100.00;100244.72;5049958;28;20130;-75
2024/03/01 04:53:36;;;;;;;8.43;1.70;;;;;;;3.77;100.00;100255.59;5050121;28;20041;-75
2024/03/01 04:56:01;;;;;;;4.75;1.60;;;;;;;3.73;100.00;100248.84;5049866;28;20394;-75
2024/03/01 04:58:27;;;;;;;11.07;1.80;;;;;;;3.71;100.00;100256.03;5050058;28;20055;-76
2024/03/01 05:00:52;;;;;;;5.75;1.50;;;;;;;3.64;100.00;100250.38;5050067;28;20072;-76
2024/03/01 05:03:19;;;;;;;4.45;1.60;;;;;;;3.58;100.00;100253.41;5053757;28;20025;-76
2024/03/01 05:05:45;;;;;;;5.43;1.42;;;;;;;3.54;100.00;100257.25;5054118;28;20070;-76
2024/03/01 05:08:10;;;;;;;8.75;1.58;;;;;;;3.47;100.00;100263.88;5053483;28;20104;-76
2024/03/01 05:10:36;;;;;;;8.48;1.80;;;;;;;3.38;100.00;100260.09;5052324;28;20029;-76
2024/03/01 05:13:02;;;;;;;7.22;1.98;;;;;;;3.30;100.00;100268.53;5053876;28;20036;-76
2024/03/01 05:15:27;;;;;;;10.93;1.98;;;;;;;3.26;100.00;100269.66;5053291;28;20059;-76
2024/03/01 05:17:53;;;;;;;6.22;1.75;;;;;;;3.22;100.00;100259.47;5053369;28;20454;-76
2024/03/01 05:20:19;;;;;;;4.28;1.70;;;;;;;3.14;100.00;100268.72;5053461;28;20024;-76
2024/03/01 05:22:44;;;;;;;6.45;1.40;;;;;;;3.09;100.00;100269.97;5053245;28;20331;-76
2024/03/01 05:25:17;;;;;;;10.90;2.55;;;;;;;3.06;100.00;100276.31;5051978;28;20025;-75
2024/03/01 05:27:49;;;;;;;5.10;1.58;;;;;;;3.03;100.00;100275.66;5053198;28;20041;-76
2024/03/01 05:30:20;;;;;;;4.93;1.70;;;;;;;2.98;100.00;100286.47;5053435;28;20096;-76
2024/03/01 05:32:46;;;;;;;9.82;2.15;;;;;;;2.91;100.00;100285.22;5053461;28;20455;-76
2024/03/01 05:35:13;;;;;;;10.90;1.92;;;;;;;2.83;100.00;100291.81;5053522;28;20435;-76
2024/03/01 05:37:40;;;;;;;5.80;1.80;;;;;;;2.78;100.00;100298.34;5052096;28;20060;-75
2024/03/01 05:40:06;;;;;;;8.18;2.20;;;;;;;2.72;100.00;100306.66;5053028;28;20506;-75
2024/03/01 05:42:31;;;;;;;6.57;1.77;;;;;;;2.65;100.00;100303.56;5052873;28;20032;-75
2024/03/01 05:44:57;;;;;;;5.28;1.70;;;;;;;2.57;100.00;100295.38;5052690;28;20036;-76
2024/03/01 05:47:22;;;;;;;7.80;1.98;;;;;;;2.50;100.00;100304.56;5052659;28;20110;-76
2024/03/01 05:49:48;;;;;;;5.38;2.15;;;;;;;2.43;100.00;100299.72;5052874;28;20483;-76
2024/03/01 05:52:14;;;;;;;3.72;2.05;;;;;;;2.43;100.00;100301.50;5053234;28;20045;-76
2024/03/01 05:54:39;;;;;;;6.80;2.38;;;;;;;2.38;100.00;100301.78;5052821;28;20028;-78
2024/03/01 05:57:05;;;;;;;8.40;2.50;;;;;;;2.38;100.00;100307.03;5051716;28;20375;-76
2024/03/01 05:59:30;;;;;;;6.10;3.10;;;;;;;2.40;100.00;100312.19;5053006;28;20033;-75
2024/03/01 06:01:55;;;;;;;8.95;3.05;;;;;;;2.43;100.00;100327.75;5052865;28;20132;-76
2024/03/01 06:04:21;;;;;;;10.70;3.45;;;;;;;2.44;100.00;100318.94;5052447;28;20037;-79
2024/03/01 06:06:46;;;;;;;8.50;2.97;;;;;;;2.45;100.00;100324.09;5051915;28;20452;-75
2024/03/01 06:09:11;;;;;;;3.33;2.60;;;;;;;2.42;100.00;100329.56;5052639;28;20025;-76
2024/03/01 06:11:37;;;;;;;8.48;3.28;;;;;;;2.45;100.00;100328.53;5051124;28;20105;-76
2024/03/01 06:14:03;;;;;;;8.82;3.00;;;;;;;2.46;100.00;100319.69;5051865;28;20033;-75
2024/03/01 06:16:28;;;;;;;10.70;3.13;;;;;;;2.44;100.00;100332.91;5052585;28;20055;-77
2024/03/01 06:18:55;;;;;;;7.22;2.97;;;;;;;2.46;100.00;100332.81;5052175;28;20148;-76
2024/03/01 06:21:21;;;;;;;4.90;2.60;;;;;;;2.42;100.00;100334.81;5052627;28;20475;-76
2024/03/01 06:23:46;;;;;;;7.00;2.60;;;;;;;2.39;100.00;100339.38;5052567;28;20106;-76
2024/03/01 06:26:13;;;;;;;6.43;2.63;;;;;;;2.38;100.00;100332.47;5052203;28;20093;-75
2024/03/01 06:28:38;;;;;;;7.07;2.63;;;;;;;2.39;100.00;100327.13;5051853;28;20083;-75
2024/03/01 06:31:04;;;;;;;5.45;2.67;;;;;;;2.38;100.00;100329.84;5051946;28;20024;-76
2024/03/01 06:33:29;;;;;;;8.77;2.20;;;;;;;2.45;100.00;100331.97;5031239;28;20040;-75
2024/03/01 06:35:55;;;;;;;12.98;2.70;;;;;;;2.50;100.00;100338.72;5050002;28;20213;-75
2024/03/01 06:38:20;;;;;;;4.82;2.50;;;;;;;2.54;100.00;100337.56;5051355;28;20045;-80
2024/03/01 06:40:45;;;;;;;4.88;2.45;;;;;;;2.55;100.00;100344.50;5050809;28;20469;-89
2024/03/01 06:43:11;;;;;;;6.82;2.80;;;;;;;2.62;100.00;100337.91;5051649;28;20104;-78
2024/03/01 06:45:36;;;;;;;10.15;3.58;;;;;;;2.68;100.00;100342.75;5050104;28;20053;-76
2024/03/01 06:48:02;;;;;;;8.75;3.70;;;;;;;2.76;100.00;100334.38;5051494;28;20057;-75
2024/03/01 06:50:27;;;;;;;12.48;3.78;;;;;;;2.90;100.00;100338.75;5051498;28;20021;-76
2024/03/01 06:52:53;;;;;;;7.97;3.17;;;;;;;2.99;100.00;100338.13;5051579;28;20033;-76
2024/03/01 06:55:18;;;;;;;9.00;4.03;;;;;;;3.06;100.00;100339.41;5051263;28;20086;-76
2024/03/01 06:57:43;;;;;;;9.85;3.95;;;;;;;3.12;100.00;100340.75;5051911;28;20466;-77
2024/03/01 07:00:09;;;;;;;9.48;4.00;;;;;;;3.19;100.00;100339.38;5051218;28;20036;-76
2024/03/01 07:02:34;;;;;;;9.63;4.10;;;;;;;3.28;100.00;100337.94;5051795;28;20450;-76
2024/03/01 07:05:00;;;;;;;11.93;4.25;;;;;;;3.36;100.00;100333.00;5051334;28;20324;-77
2024/03/01 07:07:25;;;;;;;12.35;4.35;;;;;;;3.43;100.00;100328.16;5051560;28;20522;-77
2024/03/01 07:09:51;;;;;;;7.55;4.20;;;;;;;3.50;100.00;100319.72;5051595;28;20032;-77
2024/03/01 07:12:17;;;;;;;12.93;4.25;;;;;;;3.59;100.00;100320.88;5051300;28;20021;-76
2024/03/01 07:14:43;;;;;;;10.65;4.22;;;;;;;3.68;100.00;100319.41;5051441;28;20037;-76
2024/03/01 07:17:09;;;;;;;6.55;3.88;;;;;;;3.74;100.00;100312.88;5051032;28;20098;-76
2024/03/01 07:19:34;;;;;;;12.05;3.92;;;;;;;3.78;100.00;100320.44;5051157;28;20029;-76
2024/03/01 07:21:59;;;;;;;9.27;4.55;;;;;;;3.74;100.00;100318.13;5050888;28;20063;-76
2024/03/01 07:24:25;;;;;;;8.13;3.83;;;;;;;3.69;100.00;100307.94;5050836;28;20041;-76
2024/03/01 07:26:50;;;;;;;9.20;4.07;;;;;;;3.63;100.00;100311.00;5050986;28;20100;-76
2024/03/01 07:29:15;;;;;;;11.45;4.38;;;;;;;3.61;100.00;100312.88;5050921;28;20064;-76
2024/03/01 07:31:41;;;;;;;9.68;4.63;;;;;;;3.61;100.00;100308.44;5050825;28;20475;-76
2024/03/01 07:34:07;;;;;;;12.95;4.72;;;;;;;3.64;100.00;100305.63;5050868;28;20454;-76
2024/03/01 07:36:32;;;;;;;12.65;5.15;;;;;;;3.67;100.00;100307.19;5050890;28;20055;-76
2024/03/01 07:38:57;;;;;;;15.50;5.13;;;;;;;3.71;100.00;100304.22;5050955;28;20112;-77
2024/03/01 07:41:23;;;;;;;12.05;4.65;;;;;;;3.74;100.00;100312.88;5050568;28;20037;-77
2024/03/01 07:43:49;;;;;;;17.67;5.88;;;;;;;3.77;100.00;100310.84;5051046;28;20052;-76
2024/03/01 07:46:14;;;;;;;13.88;5.10;;;;;;;3.80;100.00;100308.00;5050282;28;20362;-76
2024/03/01 07:48:43;;;;;;;15.02;5.38;;;;;;;3.86;100.00;100312.00;5051231;28;20059;-76
2024/03/01 07:51:10;;;;;;;16.52;6.10;;;;;;;3.92;100.00;100311.56;5050317;28;20366;-76
2024/03/01 07:53:35;;;;;;;15.95;6.13;;;;;;;3.96;100.00;100307.78;5050528;28;20094;-78
2024/03/01 07:56:01;;;;;;;14.60;6.43;;;;;;;4.02;100.00;100309.13;5050586;28;20029;-77
2024/03/01 07:58:26;;;;;;;14.57;7.15;;;;;;;4.05;100.00;100304.47;5048500;28;20183;-77
2024/03/01 08:00:51;;;;;;;15.55;7.43;;;;;;;4.13;100.00;100303.91;5047678;28;20112;-86
2024/03/01 08:03:17;;;;;;;17.02;7.90;;;;;;;4.18;100.00;100307.06;5047428;28;20116;-88
2024/03/01 08:05:42;;;;;;;21.25;7.85;;;;;;;4.23;100.00;100312.84;5047512;28;20096;-83
2024/03/01 08:08:09;;;;;;;19.75;8.25;;;;;;;4.35;100.00;100310.28;5046877;28;20028;-77
2024/03/01 08:10:45;;;;;;;26.85;8.90;;;;;;;4.50;100.00;100298.59;5049312;28;20044;-78
2024/03/01 08:13:12;;;;;;;23.30;8.93;;;;;;;4.66;100.00;100295.69;5049088;28;20051;-79
2024/03/01 08:15:39;;;;;;;20.80;9.07;;;;;;;4.74;100.00;100295.94;5050550;28;20056;-77
2024/03/01 08:18:15;;;;;;;16.15;8.32;;;;;;;4.85;100.00;100299.56;5049476;28;20497;-78
2024/03/01 08:21:08;;;;;;;18.85;8.10;;;;;;;4.97;100.00;100303.94;5046822;28;20586;-79
2024/03/01 08:23:40;;;;;;;13.77;8.20;;;;;;;5.06;100.00;100300.59;5048263;28;20093;-80
2024/03/01 08:26:26;;;;;;;12.15;7.10;;;;;;;5.16;100.00;100292.81;5050237;28;20068;-78
2024/03/01 08:28:52;;;;;;;11.85;7.28;;;;;;;5.20;100.00;100302.16;5049804;28;20037;-77
2024/03/01 08:31:23;;;;;;;14.57;7.57;;;;;;;5.29;100.00;100287.44;5048448;28;20354;-79
2024/03/01 08:33:54;;;;;;;;;;;;;;;5.33;100.00;100283.63;5050393;28;20036;-79
2024/03/01 08:36:21;;;;;;;13.60;7.45;;;;;;;5.39;100.00;100267.31;5049009;28;20258;-80
2024/03/01 08:38:46;;;;;;;10.45;6.95;;;;;;;5.51;100.00;100272.56;5054198;28;20323;-81
2024/03/01 08:41:11;;;;;;;19.42;7.93;;;;;;;5.69;100.00;100265.84;5053944;28;20040;-78
2024/03/01 08:43:40;;;;;;;11.68;6.97;;;;;;;5.78;100.00;100261.66;5052328;28;20036;-80
2024/03/01 08:46:26;;;;;;;12.90;6.10;;;;;;;5.65;100.00;100264.41;5053718;28;20033;-79
2024/03/01 08:48:51;;;;;;;17.27;7.88;;;;;;;5.79;100.00;100258.03;5053715;28;20128;-80
2024/03/01 08:51:17;;;;;;;14.57;7.22;;;;;;;5.79;100.00;100260.66;5052714;28;20184;-78
2024/03/01 08:53:57;;;;;;;18.02;7.65;;;;;;;5.81;100.00;100256.94;5053408;28;20505;-77
2024/03/01 08:56:32;;;;;;;16.83;8.13;;;;;;;5.70;100.00;100270.16;5053490;28;20021;-78
2024/03/01 08:59:00;;;;;;;14.32;7.82;;;;;;;5.91;100.00;100272.91;5053310;28;20112;-78
2024/03/01 09:01:47;;;;;;;13.45;7.63;;;;;;;5.78;100.00;100267.75;5053023;28;20104;-81
2024/03/01 09:04:28;;;;;;;16.63;8.15;;;;;;;5.73;100.00;100253.25;5053407;28;20025;-77
2024/03/01 09:07:13;;;;;;;;;;;;;;;5.74;100.00;100260.22;5054126;28;20044;-79
2024/03/01 09:09:39;;;;;;;12.15;8.25;;;;;;;5.75;100.00;100256.63;5053284;28;19909;-78
2024/03/01 09:12:23;;;;;;;13.70;8.30;;;;;;;5.64;100.00;100260.09;5052238;28;20111;-76
2024/03/01 09:14:49;;;;;;;13.63;7.53;;;;;;;5.52;100.00;100261.88;5048491;28;20029;-79
2024/03/01 09:17:14;;;;;;;19.58;8.05;;;;;;;5.59;100.00;100262.25;5049836;28;20051;-77
2024/03/01 09:19:45;;;;;;;20.55;7.70;;;;;;;5.54;100.00;100261.75;5049607;28;20463;-77
2024/03/01 09:22:11;;;;;;;13.27;8.38;;;;;;;5.50;100.00;100260.34;5047899;28;20470;-76
2024/03/01 09:24:38;;;;;;;15.20;8.18;;;;;;;5.65;100.00;100253.84;5049600;28;20078;-80
2024/03/01 09:27:16;;;;;;;17.25;8.63;;;;;;;5.74;100.00;100254.94;5049639;28;20097;-76
2024/03/01 09:29:44;;;;;;;15.68;8.25;;;;;;;5.86;100.00;100259.22;5049115;28;20025;-82
2024/03/01 09:32:10;;;;;;;14.73;9.13;;;;;;;5.78;100.00;100259.00;5049476;28;20451;-77
2024/03/01 09:34:39;;;;;;;17.17;8.27;;;;;;;5.91;100.00;100261.50;5049294;28;20117;-82
2024/03/01 09:37:08;;;;;;;13.55;5.85;;;;;;;6.44;100.00;100240.47;5049077;28;20024;-76
2024/03/01 09:39:34;;;;;;;13.48;5.03;;;;;;;7.93;100.00;100244.56;5049497;28;20108;-79
2024/03/01 09:42:15;;;;;;;6.68;4.10;;;;;;;7.79;100.00;100232.50;5049107;28;20100;-76
2024/03/01 09:44:53;;;;;;;;;;;;;;;7.69;100.00;100234.31;5049560;28;20516;-85
2024/03/01 09:47:39;;;;;;;14.98;4.93;;;;;;;7.93;100.00;100226.00;5048682;28;19924;-75
2024/03/01 09:50:23;;;;;;;10.27;4.75;;;;;;;7.44;100.00;100233.81;5049609;28;20141;-85
2024/03/01 09:53:04;;;;;;;9.10;5.10;;;;;;;7.07;100.00;100216.66;5052766;28;20025;-75
2024/03/01 09:55:46;;;;;;;10.90;5.63;;;;;;;6.86;100.00;100215.84;5049887;28;20354;-78
2024/03/01 09:58:32;;;;;;;12.13;5.80;;;;;;;7.71;100.00;100198.78;5051976;28;20028;-78
2024/03/01 10:01:13;;;;;;;8.60;5.38;;;;;;;9.66;100.00;100196.81;5050927;28;20025;-79
2024/03/01 10:04:14;;;;;;;7.05;3.40;;;;;;;10.23;100.00;100197.34;5052321;28;20035;-78
2024/03/01 10:06:39;;;;;;;6.70;3.17;;;;;;;10.14;100.00;100197.44;5052510;28;20124;-79
2024/03/01 10:09:24;;;;;;;9.40;4.40;;;;;;;10.51;100.00;100201.75;5052308;28;20126;-75
2024/03/01 10:12:04;;;;;;;7.70;4.80;;;;;;;9.48;100.00;100186.97;5052403;28;20017;-74
2024/03/01 10:14:43;;;;;;;10.27;5.25;;;;;;;9.26;100.00;100197.97;5052142;28;20115;-77
2024/03/01 10:17:46;;;;;;;5.93;4.88;;;;;;;8.69;100.00;100180.28;5052087;28;20536;-78
2024/03/01 10:20:20;;;;;;;10.57;5.53;;;;;;;9.02;100.00;100163.97;5052518;28;20083;-75
2024/03/01 10:23:29;;;;;;;12.38;5.38;;;;;;;10.20;100.00;100162.28;5050810;28;20065;-75
2024/03/01 10:26:04;;;;;;;8.30;4.68;;;;;;;11.74;100.00;100153.66;5052568;28;20036;-77
2024/03/01 10:28:41;;;;;;;7.47;3.88;;;;;;;12.43;100.00;100154.22;5052229;28;20021;-76
2024/03/01 10:31:37;;;;;;;7.53;3.83;;;;;;;12.54;100.00;100163.72;5052211;28;20025;-76
2024/03/01 10:34:06;;;;;;;6.55;3.78;;;;;;;12.06;100.00;100142.25;5052209;28;20043;-76
2024/03/01 10:36:31;;;;;;;8.85;3.50;;;;;;;10.75;100.00;100142.59;5052168;28;20020;-76
2024/03/01 10:39:14;;;;;;;6.50;3.70;;;;;;;9.94;100.00;100133.81;5051861;28;20036;-77
2024/03/01 10:42:05;;;;;;;12.70;3.75;;;;;;;10.50;100.00;100118.50;5052022;28;20021;-78
2024/03/01 10:44:45;;;;;;;8.27;3.03;;;;;;;11.14;100.00;100119.97;5051856;28;20021;-76
2024/03/01 10:47:20;;;;;;;8.35;2.90;;;;;;;10.89;100.00;100109.22;5051673;28;20025;-79
2024/03/01 10:50:03;;;;;;;7.32;2.60;;;;;;;9.71;100.00;100110.34;5051888;28;20017;-78
2024/03/01 10:52:37;;;;;;;5.60;2.80;;;;;;;9.07;100.00;100098.84;5051739;28;20024;-78
2024/03/01 10:55:05;;;;;;;9.00;3.00;;;;;;;8.53;100.00;100089.88;5050477;28;20409;-76
2024/03/01 10:57:36;;;;;;;7.95;3.08;;;;;;;8.77;100.00;100073.44;5051869;28;20108;-76
2024/03/01 11:00:06;;;;;;;;;;;;;;;9.45;100.00;100081.03;5051514;28;20057;-75
2024/03/01 11:02:42;;;;;;;8.63;2.72;;;;;;;9.73;100.00;100088.94;5050635;28;19905;-79
2024/03/01 11:05:38;;;;;;;5.30;2.40;;;;;;;10.18;100.00;100072.03;5050441;28;20086;-76
2024/03/01 11:08:23;;;;;;;6.60;2.55;;;;;;;10.56;100.00;100075.31;5051943;28;20124;-77
2024/03/01 11:11:06;;;;;;;4.35;2.25;;;;;;;10.49;100.00;100060.13;5052080;28;20020;-74
2024/03/01 11:13:37;;;;;;;15.43;2.35;;;;;;;9.91;100.00;100065.00;5051400;28;20029;-76
2024/03/01 11:16:06;;;;;;;15.65;2.85;;;;;;;9.25;100.00;100050.28;5051720;28;20120;-77
2024/03/01 11:18:37;;;;;;;6.57;2.42;;;;;;;8.95;100.00;100049.63;5051265;28;20025;-76
2024/03/01 11:21:09;;;;;;;4.68;2.25;;;;;;;9.00;100.00;100052.66;5051265;28;20024;-76
2024/03/01 11:23:41;;;;;;;5.20;2.05;;;;;;;8.68;100.00;100042.50;5051404;28;20016;-77
2024/03/01 11:26:19;;;;;;;5.63;1.92;;;;;;;8.39;100.00;100046.91;5051106;28;20063;-77
2024/03/01 11:28:55;;;;;;;3.38;2.03;;;;;;;8.11;100.00;100044.16;5050644;28;20036;-76